Terminal Aerodrome Forecast
Issued by NWS

Home | Current Version | Previous Version | Text Only | Print | Product List | Glossary On
Versions: 1 2 3 4 5 6 7 8 9 10 11 12
065
FTUS45 KABQ 230528
TAFTCC
TAF
KTCC 230528Z 2306/2406 29006KT P6SM BKN250
     FM232000 21006KT P6SM BKN250=

USA.gov is the U.S. government's official web portal to all federal, state and local government web resources and services.